Terminal Aerodrome Forecast
Issued by NWS

Home | Current Version | Previous Version | Text Only | Print | Product List | Glossary On
Versions: 1 2 3 4 5 6 7 8 9 10 11 12 13 14 15 16 17 18
000
FTUS41 KPBZ 240111 AAA
TAFHLG
TAF AMD
KHLG 240111Z 2401/2424 27003KT P6SM BKN250
     FM240600 00000KT 5SM BR SCT150
     FM240800 00000KT 3SM BR SCT150
     FM240900 00000KT 1 1/2SM BR SCT150
     FM241400 20003KT P6SM SCT250
     FM241800 22005KT P6SM BKN050 PROB30 2420/2424 4SM -TSRA
      BKN040CB=

USA.gov is the U.S. government's official web portal to all federal, state and local government web resources and services.